Brodhead, WI (53520)

17:12 CDT le 28 Mars 2015 (GMT -0500)
Brodhead Airport | | Change Station
CLOSE
Current Station
Stations météorologiques personnelles
Location: Brodhead, WI
Altitude: 793 ft
Stations météo à proximité

Alt. 793 ft 42.59 °N, 89.38 °W | Updated 2 minutes ago

Ciel dégagé
Ciel dégagé
43.9 ° F
Paraît 41 ° F
N
5.0
Vent Variable Vent de OSO
Gusts 5.0 mph

Aujourd'hui
Haut(e) -- | Bas -- ° F
--% Risque de précip.
Hier
Haut(e) -- | Bas -- ° F
Precip. -- pouce
6:47 AM 7:18 PM
Lune gibbeuse croissante, 66% visible
Pression 30.24 pouce
Visibilité 10.0 Miles terrestres
Nuages Ciel dégagé
Refroidissement éolien 41 ° F
Point de rosée 17 ° F
Humidité 34%
Précipitations 0.00 pouce
Profondeur de la couche neigeuse Non disponible.
UV 2 sur 12
Pollen 4.20 sur 12
Qualité de l'air Non disponible.
Flu Activity Non disponible.
METAR KEFT 282155Z AUTO 21007KT 10SM CLR 03/M10 A3024 RMK AO2

More Conditions Fewer Conditions

Pression 30.24 pouce
Visibilité 10.0 Miles terrestres
Nuages Ciel dégagé
Refroidissement éolien 41 ° F
Point de rosée 17 ° F
Humidité 34%
Précipitations 0.00 pouce
Profondeur de la couche neigeuse Non disponible.
UV 2 sur 12
Pollen 4.20 sur 12
Qualité de l'air Non disponible.
Flu Activity Non disponible.
METAR KEFT 282155Z AUTO 21007KT 10SM CLR 03/M10 A3024 RMK AO2

More Conditions Fewer Conditions

10-Day Weather Forecast

Almanac

Astronomie

Mar. 28, 2015 Lever Coucher
Temps réel
Crépuscule civil
Crépuscule nautique
Crépuscule astronomique
Lune
Durée de lumière visible
Longueur du jour
Tomorrow will be .
, % of the Moon is Illuminated

Extrêmes aujourd'hui

State Highs State Lows

Community

WunderPhotos

Upload Photos

1,809,099 Photos téléchargées !

WunderBlogs® & News

Nearby

Qualité de l'air

  Qualité de l'air Indice de la qualité de l'air Polluant
Not available.

Épaisseur de neige

Station Depth Altitude

Activité sismique

Ville Distance Mag. Time & Date
Minimum magnitude displayed is 2.5.

Températures des eaux côtières

Lieu Température

Stations

Stations météo à proximité

Emplacement de la station Température Refroidissement éolien Point de rosée Humidité Vent Precip. Alt. Mise à jour Type